Time;durP1;ratioP1;P1;durP2;ratioP2;P2;SDS_P1;SDS_P2;PMS_P1;PMS_P2;Temp;Humidity;BMP_temperature;BMP_pressure;BME280_temperature;BME280_humidity;BME280_pressure;Samples;Min_cycle;Max_cycle;Signal;HPM_P1;HPM_P2
2024/03/27 00:00:11;;;;;;;4.78;3.38;;;10.50;99.90;;;;;;5007669;28;20437;-57
2024/03/27 00:02:36;;;;;;;7.47;4.03;;;10.50;99.90;;;;;;5010177;28;20606;-60
2024/03/27 00:05:03;;;;;;;5.63;4.10;;;10.60;99.90;;;;;;5009189;28;20164;-60
2024/03/27 00:07:29;;;;;;;4.65;3.42;;;10.60;99.90;;;;;;5009102;28;20528;-59
2024/03/27 00:09:54;;;;;;;2.90;2.58;;;10.50;99.90;;;;;;5009842;28;20034;-52
2024/03/27 00:12:19;;;;;;;4.57;3.08;;;10.50;99.90;;;;;;5009066;28;20070;-59
2024/03/27 00:14:45;;;;;;;6.05;3.83;;;10.40;99.90;;;;;;5009140;28;20034;-60
2024/03/27 00:17:11;;;;;;;5.10;3.78;;;;;;;;;;5007943;28;20030;-59
2024/03/27 00:19:36;;;;;;;5.18;3.78;;;10.70;99.90;;;;;;5007760;28;20026;-55
2024/03/27 00:22:02;;;;;;;5.30;3.30;;;10.60;99.90;;;;;;5009021;28;20042;-59
2024/03/27 00:24:29;;;;;;;35.88;23.83;;;10.60;99.90;;;;;;5009115;28;20032;-60
2024/03/27 00:26:55;;;;;;;37.72;20.52;;;10.60;99.90;;;;;;5021100;28;20029;-58
2024/03/27 00:29:20;;;;;;;90.32;45.20;;;10.60;99.90;;;;;;4991958;28;20177;-61
2024/03/27 00:31:46;;;;;;;10.45;6.63;;;10.70;99.90;;;;;;4989520;28;20034;-60
2024/03/27 00:34:11;;;;;;;19.70;3.97;;;10.70;99.90;;;;;;4987869;28;20030;-60
2024/03/27 00:36:37;;;;;;;7.05;3.60;;;10.70;99.90;;;;;;4989606;28;20282;-61
2024/03/27 00:39:03;;;;;;;3.83;3.25;;;10.80;99.90;;;;;;4989017;28;20394;-58
2024/03/27 00:41:28;;;;;;;8.00;3.22;;;10.90;99.90;;;;;;4988882;28;20026;-56
2024/03/27 00:43:54;;;;;;;5.18;3.67;;;10.90;99.90;;;;;;4989137;28;20108;-51
2024/03/27 00:46:20;;;;;;;5.53;3.65;;;10.90;99.90;;;;;;4989311;28;20465;-60
2024/03/27 00:48:45;;;;;;;5.53;3.70;;;10.90;99.90;;;;;;4989365;28;20101;-60
2024/03/27 00:51:13;;;;;;;6.32;3.67;;;;;;;;;;4987534;28;20377;-60
2024/03/27 00:53:39;;;;;;;3.78;3.17;;;;;;;;;;4989790;28;20038;-58
2024/03/27 00:56:06;;;;;;;4.47;3.15;;;;;;;;;;4993134;28;20033;-61
2024/03/27 00:58:32;;;;;;;4.43;3.47;;;;;;;;;;4993159;28;20022;-59
2024/03/27 01:00:58;;;;;;;5.47;4.13;;;;;;;;;;4992832;28;20096;-59
2024/03/27 01:03:24;;;;;;;5.05;3.35;;;;;;;;;;4993079;28;20397;-55
2024/03/27 01:05:50;;;;;;;3.53;3.20;;;;;;;;;;4993173;28;20038;-59
2024/03/27 01:08:16;;;;;;;6.97;3.40;;;;;;;;;;4991715;28;20037;-60
2024/03/27 01:10:44;;;;;;;7.35;3.30;;;;;;;;;;4992688;28;20030;-59
2024/03/27 01:13:09;;;;;;;5.75;3.50;;;;;;;;;;4993023;28;20569;-56
2024/03/27 01:15:36;;;;;;;3.67;3.33;;;;;;;;;;4992914;28;20074;-57
2024/03/27 01:18:03;;;;;;;4.75;3.60;;;;;;;;;;4992783;28;20113;-58
2024/03/27 01:20:29;;;;;;;5.25;3.53;;;;;;;;;;4992569;28;20042;-57
2024/03/27 01:22:56;;;;;;;4.55;3.72;;;;;;;;;;4992623;28;20033;-55
2024/03/27 01:25:50;;;;;;;4.35;3.53;;;;;;;;;;4992783;28;20037;-60
2024/03/27 01:28:31;;;;;;;4.68;3.80;;;;;;;;;;4992797;28;20061;-58
2024/03/27 01:31:11;;;;;;;8.88;3.45;;;;;;;;;;4992451;28;20018;-58
2024/03/27 01:33:53;;;;;;;5.57;3.55;;;;;;;;;;4992511;28;20065;-56
2024/03/27 01:36:32;;;;;;;6.13;3.60;;;;;;;;;;4992690;28;20458;-59
2024/03/27 01:39:14;;;;;;;7.25;3.67;;;;;;;;;;4992494;28;20050;-50
2024/03/27 01:41:56;;;;;;;6.32;3.58;;;;;;;;;;5047180;23;20084;-56
2024/03/27 01:44:40;;;;;;;5.38;3.38;;;;;;;;;;5035025;28;20075;-49
2024/03/27 01:47:23;;;;;;;5.47;3.70;;;;;;;;;;5035092;28;20028;-50
2024/03/27 01:50:01;;;;;;;8.75;4.10;;;;;;;;;;5037354;28;20053;-56
2024/03/27 01:52:29;;;;;;;5.03;3.47;;;;;;;;;;5054363;28;20391;-52
2024/03/27 01:55:15;;;;;;;3.70;3.10;;;;;;;;;;5054613;28;20104;-52
2024/03/27 01:57:43;;;;;;;6.90;3.97;;;;;;;;;;5054234;28;20463;-51
2024/03/27 02:00:34;;;;;;;5.68;3.38;;;;;;;;;;5053031;28;20400;-54
2024/03/27 02:03:22;;;;;;;7.05;3.40;;;;;;;;;;5054204;28;20056;-52
2024/03/27 02:06:07;;;;;;;4.53;3.70;;;;;;;;;;5054291;28;20495;-54
2024/03/27 02:08:55;;;;;;;4.32;3.40;;;;;;;;;;5054204;28;20061;-54
2024/03/27 02:11:29;;;;;;;5.25;4.13;;;;;;;;;;5054065;28;20048;-54
2024/03/27 02:14:00;;;;;;;7.25;3.63;;;;;;;;;;5053985;28;20037;-49
2024/03/27 02:16:33;;;;;;;6.60;3.28;;;;;;;;;;5054379;28;20496;-49
2024/03/27 02:19:17;;;;;;;5.63;4.00;;;;;;;;;;5053753;28;20068;-53
2024/03/27 02:21:50;;;;;;;9.70;3.72;;;;;;;;;;5053708;28;20053;-53
2024/03/27 02:24:42;;;;;;;10.32;3.50;;;;;;;;;;5052573;28;20064;-53
2024/03/27 02:27:16;;;;;;;5.60;4.00;;;;;;;;;;5054246;28;20045;-51
2024/03/27 02:29:45;;;;;;;7.80;2.90;;;;;;;;;;5053647;28;20071;-51
2024/03/27 02:32:13;;;;;;;9.82;3.28;;;;;;;;;;5053452;28;20063;-53
2024/03/27 02:34:42;;;;;;;4.38;3.55;;;;;;;;;;5053472;28;20059;-54
2024/03/27 02:37:11;;;;;;;5.68;2.95;;;;;;;;;;5053364;28;20087;-52
2024/03/27 02:39:40;;;;;;;5.43;3.10;;;;;;;;;;5053839;28;20113;-53
2024/03/27 02:42:09;;;;;;;5.13;3.35;;;;;;;;;;5053995;28;20072;-52
2024/03/27 02:44:37;;;;;;;7.40;4.15;;;;;;;;;;5052111;28;20056;-54
2024/03/27 02:47:06;;;;;;;5.45;3.53;;;;;;;;;;5053306;28;20060;-56
2024/03/27 02:49:35;;;;;;;5.07;3.10;;;;;;;;;;5053207;28;20017;-52
2024/03/27 02:52:04;;;;;;;4.97;3.45;;;;;;;;;;5053135;28;20049;-51
2024/03/27 02:54:33;;;;;;;5.78;3.78;;;;;;;;;;5053176;28;20075;-55
2024/03/27 02:57:02;;;;;;;6.03;3.60;;;;;;;;;;5053257;28;20052;-49
2024/03/27 02:59:31;;;;;;;4.25;3.00;;;;;;;;;;5051733;28;20469;-49
2024/03/27 03:02:00;;;;;;;4.22;3.50;;;;;;;;;;5053161;28;20067;-54
2024/03/27 03:04:29;;;;;;;9.70;3.92;;;;;;;;;;5052981;28;20032;-54
2024/03/27 03:06:58;;;;;;;9.68;3.10;;;;;;;;;;5052912;28;20048;-54
2024/03/27 03:09:26;;;;;;;8.40;3.55;;;;;;;;;;5053296;28;20056;-53
2024/03/27 03:11:55;;;;;;;3.63;3.22;;;;;;;;;;5052650;28;20025;-54
2024/03/27 03:14:21;;;;;;;5.18;3.20;;;9.40;99.90;;;;;;5053251;28;20534;-49
2024/03/27 03:16:46;;;;;;;7.18;3.95;;;;;;;;;;5052164;28;20060;-56
2024/03/27 03:19:12;;;;;;;6.72;4.63;;;9.10;99.90;;;;;;5052573;28;20028;-53
2024/03/27 03:21:38;;;;;;;5.85;4.15;;;9.00;99.90;;;;;;5051162;28;20470;-53
2024/03/27 03:24:03;;;;;;;5.40;4.55;;;8.90;99.90;;;;;;5052511;28;20029;-54
2024/03/27 03:26:29;;;;;;;6.05;4.00;;;8.80;99.90;;;;;;5052580;28;20032;-53
2024/03/27 03:28:54;;;;;;;4.75;3.83;;;8.90;99.90;;;;;;5052481;28;20064;-53
2024/03/27 03:31:21;;;;;;;7.75;3.75;;;8.90;99.90;;;;;;5052382;28;20064;-51
2024/03/27 03:33:46;;;;;;;4.57;3.50;;;8.70;99.90;;;;;;5052530;28;20021;-52
2024/03/27 03:36:12;;;;;;;5.30;4.30;;;8.70;99.90;;;;;;5052460;28;20358;-48
2024/03/27 03:38:37;;;;;;;4.90;4.05;;;8.60;99.90;;;;;;5052219;28;20032;-56
2024/03/27 03:41:05;;;;;;;6.38;3.20;;;8.50;99.90;;;;;;5051778;28;20029;-49
2024/03/27 03:43:31;;;;;;;6.10;4.78;;;8.40;99.90;;;;;;5052492;28;20033;-51
2024/03/27 03:45:56;;;;;;;4.43;4.03;;;8.40;99.90;;;;;;5052768;28;20025;-51
2024/03/27 03:48:22;;;;;;;4.07;3.50;;;8.30;99.90;;;;;;5053144;28;20025;-51
2024/03/27 03:50:48;;;;;;;4.50;3.95;;;8.30;99.90;;;;;;5052451;28;20036;-50
2024/03/27 03:53:13;;;;;;;5.45;4.53;;;8.30;99.90;;;;;;5052177;28;20017;-57
2024/03/27 03:55:42;;;;;;;6.22;4.60;;;8.30;99.90;;;;;;5052247;28;20123;-53
2024/03/27 03:58:08;;;;;;;7.03;4.88;;;8.30;99.90;;;;;;5050976;28;20725;-55
2024/03/27 04:00:33;;;;;;;11.52;4.63;;;8.30;99.90;;;;;;5051868;28;20060;-53
2024/03/27 04:02:59;;;;;;;8.88;4.88;;;8.20;99.90;;;;;;5050480;28;20481;-52
2024/03/27 04:05:25;;;;;;;6.43;5.25;;;8.20;99.90;;;;;;5052228;28;20024;-53
2024/03/27 04:07:51;;;;;;;5.82;4.82;;;8.10;99.90;;;;;;5051814;28;20049;-54
2024/03/27 04:10:16;;;;;;;6.43;5.18;;;8.00;99.90;;;;;;5051959;28;20033;-54
2024/03/27 04:12:42;;;;;;;5.95;5.13;;;7.90;99.90;;;;;;5051657;28;20443;-53
2024/03/27 04:15:09;;;;;;;7.72;5.00;;;7.90;99.90;;;;;;5050537;28;20078;-53
2024/03/27 04:17:34;;;;;;;8.52;5.38;;;7.80;99.90;;;;;;5051879;28;20067;-52
2024/03/27 04:20:01;;;;;;;7.35;5.05;;;8.00;99.90;;;;;;5051605;28;20481;-51
2024/03/27 04:22:31;;;;;;;6.88;5.00;;;7.90;99.90;;;;;;5051676;28;20396;-56
2024/03/27 04:24:56;;;;;;;5.68;5.07;;;7.90;99.90;;;;;;5051774;28;20074;-54
2024/03/27 04:27:22;;;;;;;9.18;5.15;;;7.90;99.90;;;;;;5049669;28;20017;-49
2024/03/27 04:29:47;;;;;;;7.45;5.82;;;7.80;99.90;;;;;;5051679;28;20025;-50
2024/03/27 04:32:13;;;;;;;8.75;5.55;;;7.70;99.90;;;;;;5051906;28;20103;-49
2024/03/27 04:34:38;;;;;;;10.10;5.20;;;7.70;99.90;;;;;;5052113;28;20155;-54
2024/03/27 04:37:05;;;;;;;8.48;6.18;;;7.70;99.90;;;;;;5051765;28;20025;-55
2024/03/27 04:39:30;;;;;;;8.52;6.32;;;7.80;99.90;;;;;;5052084;28;20075;-53
2024/03/27 04:41:56;;;;;;;7.05;5.15;;;7.70;99.90;;;;;;5052042;28;20422;-52
2024/03/27 04:44:21;;;;;;;10.30;5.90;;;7.60;99.90;;;;;;5051139;28;20027;-51
2024/03/27 04:46:47;;;;;;;9.20;5.35;;;7.50;99.90;;;;;;5051406;28;20385;-53
2024/03/27 04:49:12;;;;;;;8.40;5.60;;;7.50;99.90;;;;;;5050876;28;20025;-56
2024/03/27 04:51:38;;;;;;;6.82;4.93;;;7.50;99.90;;;;;;5052056;28;20033;-52
2024/03/27 04:54:04;;;;;;;10.25;6.20;;;7.50;99.90;;;;;;5051478;28;20025;-54
2024/03/27 04:56:30;;;;;;;6.15;4.97;;;7.50;99.90;;;;;;5051961;28;20040;-55
2024/03/27 04:58:55;;;;;;;7.80;6.10;;;7.50;99.90;;;;;;5051604;28;20477;-50
2024/03/27 05:01:21;;;;;;;8.05;5.70;;;7.50;99.90;;;;;;5051516;28;20067;-54
2024/03/27 05:03:47;;;;;;;15.85;5.68;;;7.50;99.90;;;;;;5051847;28;20079;-50
2024/03/27 05:06:12;;;;;;;7.25;5.55;;;7.50;99.90;;;;;;5051764;28;20455;-55
2024/03/27 05:08:38;;;;;;;7.43;5.72;;;7.50;99.90;;;;;;5051287;28;20033;-53
2024/03/27 05:11:03;;;;;;;12.27;5.53;;;7.50;99.90;;;;;;5051112;28;20033;-54
2024/03/27 05:13:29;;;;;;;7.43;5.68;;;7.40;99.90;;;;;;5051150;28;20429;-51
2024/03/27 05:15:55;;;;;;;9.88;5.57;;;7.50;99.90;;;;;;5051321;28;20028;-55
2024/03/27 05:18:20;;;;;;;7.28;5.82;;;7.60;99.90;;;;;;5051103;28;20025;-53
2024/03/27 05:20:46;;;;;;;10.57;5.43;;;7.60;99.90;;;;;;5050944;28;20031;-51
2024/03/27 05:23:12;;;;;;;8.52;5.82;;;7.50;99.90;;;;;;5051322;28;20105;-51
2024/03/27 05:25:37;;;;;;;10.15;6.20;;;7.50;99.90;;;;;;5051146;28;20481;-55
2024/03/27 05:28:03;;;;;;;9.38;5.55;;;7.50;99.90;;;;;;5051117;28;20025;-50
2024/03/27 05:30:29;;;;;;;10.55;5.10;;;7.50;99.90;;;;;;5051002;28;20025;-49
2024/03/27 05:32:54;;;;;;;8.93;5.90;;;7.50;99.90;;;;;;5051040;28;20081;-48
2024/03/27 05:35:20;;;;;;;9.02;5.30;;;7.50;99.90;;;;;;5051038;28;20052;-48
2024/03/27 05:37:47;;;;;;;10.88;5.75;;;7.50;99.90;;;;;;5050960;28;20025;-52
2024/03/27 05:40:13;;;;;;;6.82;5.10;;;7.60;99.90;;;;;;5053169;28;20021;-54
2024/03/27 05:42:38;;;;;;;7.28;4.90;;;7.60;99.90;;;;;;5054549;28;20104;-53
2024/03/27 05:45:05;;;;;;;5.18;4.57;;;7.60;99.90;;;;;;5054942;28;20028;-53
2024/03/27 05:47:30;;;;;;;6.28;4.70;;;7.70;99.90;;;;;;5054705;28;20577;-53
2024/03/27 05:49:56;;;;;;;7.13;4.78;;;7.70;99.90;;;;;;5054817;28;20040;-56
2024/03/27 05:52:22;;;;;;;6.55;4.80;;;7.80;99.90;;;;;;5053958;28;20079;-48
2024/03/27 05:54:47;;;;;;;8.60;4.70;;;7.90;99.90;;;;;;5055735;28;20134;-49
2024/03/27 05:57:13;;;;;;;5.18;4.57;;;8.00;99.90;;;;;;5055004;28;20033;-50
2024/03/27 05:59:38;;;;;;;5.38;4.13;;;8.10;99.90;;;;;;5053220;28;20029;-50
2024/03/27 06:02:04;;;;;;;5.60;4.07;;;8.30;99.90;;;;;;5054535;28;20033;-53
2024/03/27 06:04:30;;;;;;;5.60;3.90;;;8.30;99.90;;;;;;5053033;28;20021;-52
2024/03/27 06:06:56;;;;;;;6.63;4.90;;;8.40;99.90;;;;;;5054593;28;20025;-51
2024/03/27 06:09:23;;;;;;;7.13;4.05;;;8.50;99.90;;;;;;5053379;28;20029;-51
2024/03/27 06:11:48;;;;;;;7.07;5.03;;;8.50;99.90;;;;;;5054760;28;20036;-50
2024/03/27 06:14:14;;;;;;;8.82;5.05;;;8.40;99.90;;;;;;5054917;28;20389;-52
2024/03/27 06:16:39;;;;;;;8.88;5.55;;;8.40;99.90;;;;;;5054344;28;20040;-53
2024/03/27 06:19:06;;;;;;;9.82;5.50;;;8.50;99.90;;;;;;5054072;28;20033;-56
2024/03/27 06:21:31;;;;;;;9.63;5.53;;;8.50;99.90;;;;;;5052787;28;20086;-53
2024/03/27 06:23:57;;;;;;;10.75;5.90;;;8.60;99.90;;;;;;5053945;28;20104;-53
2024/03/27 06:26:22;;;;;;;14.48;6.65;;;8.70;99.90;;;;;;5054029;28;20024;-55
2024/03/27 06:28:48;;;;;;;9.30;6.20;;;8.80;99.90;;;;;;5052493;28;20025;-52
2024/03/27 06:31:14;;;;;;;14.18;6.57;;;8.90;99.90;;;;;;5052457;28;20048;-52
2024/03/27 06:33:39;;;;;;;15.95;7.78;;;9.00;99.90;;;;;;5053893;28;20154;-56
2024/03/27 06:36:06;;;;;;;16.33;7.57;;;9.10;99.90;;;;;;5053788;28;20387;-55
2024/03/27 06:38:31;;;;;;;15.85;6.88;;;9.30;99.90;;;;;;5053543;28;20095;-54
2024/03/27 06:40:57;;;;;;;11.40;6.85;;;9.40;99.90;;;;;;5052999;28;20033;-55
2024/03/27 06:43:23;;;;;;;9.50;5.13;;;9.50;99.90;;;;;;5053774;28;20491;-50
2024/03/27 06:45:48;;;;;;;24.20;9.05;;;9.40;99.90;;;;;;5054282;28;20021;-50
2024/03/27 06:48:17;;;;;;;21.13;7.35;;;9.50;99.90;;;;;;5054901;28;20504;-56
2024/03/27 06:50:50;;;;;;;10.02;5.68;;;9.60;99.90;;;;;;5052521;28;20032;-52
2024/03/27 06:53:16;;;;;;;9.75;5.47;;;9.70;99.90;;;;;;5054161;28;20056;-53
2024/03/27 06:55:41;;;;;;;10.48;5.45;;;9.50;99.90;;;;;;5053374;28;20064;-51
2024/03/27 06:58:07;;;;;;;7.82;4.72;;;9.40;99.90;;;;;;5053475;28;20033;-53
2024/03/27 07:00:33;;;;;;;7.38;5.07;;;9.40;99.90;;;;;;5053405;28;20036;-55
2024/03/27 07:02:59;;;;;;;5.88;4.45;;;9.40;99.90;;;;;;5053132;28;20151;-56
2024/03/27 07:05:24;;;;;;;11.75;5.28;;;9.40;99.90;;;;;;5053215;28;20104;-53
2024/03/27 07:07:50;;;;;;;8.35;4.50;;;9.60;99.90;;;;;;5053316;28;20498;-53
2024/03/27 07:10:15;;;;;;;7.20;4.97;;;9.60;99.90;;;;;;5053123;28;20488;-54
2024/03/27 07:12:41;;;;;;;9.50;5.32;;;9.60;99.90;;;;;;5052977;28;20033;-55
2024/03/27 07:15:07;;;;;;;9.55;5.03;;;9.60;99.90;;;;;;5052989;28;20091;-54
2024/03/27 07:17:32;;;;;;;8.55;4.88;;;9.60;99.90;;;;;;5053050;28;20104;-52
2024/03/27 07:19:59;;;;;;;6.95;4.60;;;9.60;99.90;;;;;;5053083;28;20036;-54
2024/03/27 07:22:24;;;;;;;9.15;5.40;;;9.60;99.90;;;;;;5052793;28;20480;-50
2024/03/27 07:24:51;;;;;;;7.80;4.68;;;9.70;99.90;;;;;;5052865;28;20029;-54
2024/03/27 07:27:16;;;;;;;7.80;5.15;;;9.70;99.90;;;;;;5052813;28;20025;-52
2024/03/27 07:29:42;;;;;;;8.75;5.28;;;9.70;99.90;;;;;;5052688;28;20102;-53
2024/03/27 07:32:08;;;;;;;7.60;5.63;;;9.70;99.90;;;;;;5052579;28;20036;-55
2024/03/27 07:34:33;;;;;;;9.38;5.53;;;9.70;99.90;;;;;;5052900;28;20071;-53
2024/03/27 07:36:59;;;;;;;11.85;6.32;;;9.70;99.90;;;;;;5052668;28;20404;-55
2024/03/27 07:39:25;;;;;;;7.43;5.22;;;9.70;99.90;;;;;;5051216;28;20021;-53
2024/03/27 07:41:50;;;;;;;8.70;5.22;;;9.90;99.90;;;;;;5051456;28;20043;-53
2024/03/27 07:44:17;;;;;;;8.38;5.38;;;9.90;99.90;;;;;;5052530;28;20029;-48
2024/03/27 07:46:43;;;;;;;8.82;5.45;;;9.90;99.90;;;;;;5052276;28;20037;-51
2024/03/27 07:49:08;;;;;;;8.70;5.28;;;9.90;99.90;;;;;;5052311;28;20035;-51
2024/03/27 07:51:33;;;;;;;9.27;4.93;;;9.90;99.90;;;;;;5052214;28;20106;-48
2024/03/27 07:53:59;;;;;;;10.10;4.72;;;10.00;99.90;;;;;;5052174;28;20020;-56
2024/03/27 07:56:24;;;;;;;8.10;5.10;;;10.00;99.90;;;;;;5052193;28;20025;-55
2024/03/27 07:58:52;;;;;;;6.55;4.82;;;10.10;99.90;;;;;;5052016;28;20024;-52
2024/03/27 08:01:17;;;;;;;11.35;5.25;;;10.20;99.90;;;;;;5051885;28;20035;-52
2024/03/27 08:03:44;;;;;;;12.27;4.50;;;10.10;99.90;;;;;;5051949;28;20461;-55
2024/03/27 08:06:13;;;;;;;7.95;5.00;;;10.10;99.90;;;;;;5051907;28;20025;-52
2024/03/27 08:08:39;;;;;;;10.75;5.00;;;10.20;99.90;;;;;;5051969;28;20025;-49
2024/03/27 08:11:06;;;;;;;13.07;5.07;;;10.20;99.90;;;;;;5051748;28;20157;-49
2024/03/27 08:13:32;;;;;;;7.45;4.90;;;10.30;99.90;;;;;;5051680;28;20381;-53
2024/03/27 08:15:59;;;;;;;6.43;5.18;;;10.30;99.90;;;;;;5050780;28;20035;-54
2024/03/27 08:18:25;;;;;;;6.80;4.53;;;10.30;99.90;;;;;;5051803;28;20025;-49
2024/03/27 08:20:52;;;;;;;9.93;4.90;;;10.40;99.90;;;;;;5051577;28;20503;-52
2024/03/27 08:23:17;;;;;;;5.93;4.72;;;10.40;99.90;;;;;;5051000;28;20055;-49
2024/03/27 08:25:43;;;;;;;14.70;5.32;;;10.30;99.90;;;;;;5052694;28;20397;-52
2024/03/27 08:28:08;;;;;;;6.93;4.15;;;10.20;99.90;;;;;;5051716;28;20021;-52
2024/03/27 08:30:34;;;;;;;9.48;4.25;;;10.20;99.90;;;;;;5051852;28;20517;-55
2024/03/27 08:32:59;;;;;;;7.97;4.53;;;10.20;99.90;;;;;;5054015;28;20040;-51
2024/03/27 08:35:25;;;;;;;7.07;5.40;;;10.20;99.90;;;;;;5053125;28;20029;-48
2024/03/27 08:37:50;;;;;;;9.25;4.78;;;10.30;99.90;;;;;;5052714;28;20068;-52
2024/03/27 08:40:16;;;;;;;8.48;4.97;;;10.30;99.90;;;;;;5051178;28;20044;-49
2024/03/27 08:42:42;;;;;;;7.78;4.95;;;10.40;99.90;;;;;;5051315;28;20531;-49
2024/03/27 08:45:07;;;;;;;4.90;4.40;;;10.50;99.90;;;;;;5051449;28;20032;-50
2024/03/27 08:47:33;;;;;;;7.20;4.90;;;10.60;99.90;;;;;;5051438;28;20025;-52
2024/03/27 08:49:58;;;;;;;7.90;4.68;;;10.80;99.90;;;;;;5051309;28;20078;-54
2024/03/27 08:52:24;;;;;;;9.00;4.70;;;10.90;99.90;;;;;;5051336;28;20060;-50
2024/03/27 08:54:53;;;;;;;11.30;5.03;;;11.00;99.90;;;;;;5051330;28;20078;-52
2024/03/27 08:57:19;;;;;;;4.13;3.80;;;11.20;99.90;;;;;;5051231;28;20048;-53
2024/03/27 08:59:45;;;;;;;9.43;4.97;;;11.30;99.90;;;;;;5051224;28;20029;-56
2024/03/27 09:02:11;;;;;;;10.25;4.65;;;11.50;99.90;;;;;;5051247;28;20051;-51
2024/03/27 09:04:36;;;;;;;6.68;4.45;;;11.60;99.90;;;;;;5051348;28;20488;-54
2024/03/27 09:07:02;;;;;;;6.07;3.90;;;11.80;99.90;;;;;;5051609;28;20029;-49
2024/03/27 09:09:28;;;;;;;5.40;4.25;;;11.90;99.90;;;;;;5051623;28;20032;-48
2024/03/27 09:11:54;;;;;;;4.82;4.32;;;12.00;99.90;;;;;;5051565;28;20024;-53
2024/03/27 09:14:19;;;;;;;9.25;4.60;;;12.10;99.90;;;;;;5052925;28;20045;-54
2024/03/27 09:16:45;;;;;;;6.88;4.43;;;12.20;99.90;;;;;;5055756;28;20057;-53
2024/03/27 09:19:10;;;;;;;7.57;4.18;;;12.30;99.90;;;;;;5055287;28;20033;-52
2024/03/27 09:21:36;;;;;;;8.27;5.47;;;12.40;99.90;;;;;;5053855;28;20025;-54
2024/03/27 09:24:01;;;;;;;7.38;4.45;;;12.40;99.90;;;;;;5055351;28;20419;-49
2024/03/27 09:26:27;;;;;;;8.48;5.18;;;12.50;99.90;;;;;;5055346;28;20029;-52
2024/03/27 09:28:53;;;;;;;5.38;4.30;;;12.50;99.90;;;;;;5055224;28;20033;-54
2024/03/27 09:31:18;;;;;;;7.05;5.10;;;12.60;99.90;;;;;;5054988;28;20086;-56
2024/03/27 09:33:44;;;;;;;9.73;5.10;;;12.70;99.90;;;;;;5055152;28;20477;-52
2024/03/27 09:36:13;;;;;;;11.77;4.90;;;12.90;99.90;;;;;;5055130;28;20036;-53
2024/03/27 09:38:38;;;;;;;11.02;5.63;;;12.90;99.90;;;;;;5054895;28;20162;-57
2024/03/27 09:41:04;;;;;;;10.63;5.22;;;13.10;99.90;;;;;;5054328;28;20112;-50
2024/03/27 09:43:32;;;;;;;6.18;5.45;;;13.30;99.90;;;;;;5055355;28;20568;-54
2024/03/27 09:45:58;;;;;;;7.65;5.35;;;13.50;99.90;;;;;;5055097;28;20484;-53
2024/03/27 09:48:25;;;;;;;21.77;5.97;;;13.70;99.90;;;;;;5053512;28;20078;-54
2024/03/27 09:50:51;;;;;;;9.63;6.05;;;;;;;;;;5054449;28;20388;-56
2024/03/27 09:53:17;;;;;;;13.00;5.50;;;14.20;99.90;;;;;;5054624;28;20028;-54
2024/03/27 09:55:42;;;;;;;9.95;5.53;;;14.20;99.90;;;;;;5054469;28;20051;-49
2024/03/27 09:58:12;;;;;;;8.70;5.90;;;14.20;99.90;;;;;;5054762;28;20120;-50
2024/03/27 10:00:39;;;;;;;7.85;5.57;;;14.10;99.90;;;;;;5052751;28;20029;-51
2024/03/27 10:03:05;;;;;;;16.38;6.93;;;14.00;99.90;;;;;;5054463;28;20051;-53
2024/03/27 10:05:32;;;;;;;8.38;5.90;;;14.20;99.90;;;;;;5054279;28;20032;-53
2024/03/27 10:07:58;;;;;;;6.25;5.65;;;14.20;99.90;;;;;;5054249;28;20045;-54
2024/03/27 10:10:23;;;;;;;7.45;6.55;;;14.10;99.90;;;;;;5054261;28;20070;-56
2024/03/27 10:12:49;;;;;;;12.65;5.88;;;14.00;99.90;;;;;;5054055;28;20023;-53
2024/03/27 10:15:15;;;;;;;8.63;5.60;;;14.40;99.90;;;;;;5054274;28;20463;-51
2024/03/27 10:17:42;;;;;;;12.52;5.32;;;14.60;99.90;;;;;;5053952;28;20112;-51
2024/03/27 10:20:09;;;;;;;9.18;5.95;;;14.80;99.90;;;;;;5054000;28;20101;-55
2024/03/27 10:22:38;;;;;;;12.30;6.55;;;14.90;99.90;;;;;;5054192;28;20029;-54
2024/03/27 10:25:06;;;;;;;19.02;6.45;;;15.20;99.90;;;;;;5053513;28;20018;-56
2024/03/27 10:27:32;;;;;;;8.23;5.65;;;15.50;99.90;;;;;;5052495;28;20029;-51
2024/03/27 10:29:58;;;;;;;9.45;5.07;;;15.60;99.90;;;;;;5054154;28;20090;-54
2024/03/27 10:32:24;;;;;;;14.23;6.07;;;15.60;99.90;;;;;;5054008;28;20036;-53
2024/03/27 10:34:50;;;;;;;8.93;6.57;;;15.50;99.90;;;;;;5054966;28;20029;-54
2024/03/27 10:37:17;;;;;;;8.63;5.78;;;15.40;99.90;;;;;;5055590;28;20495;-55
2024/03/27 10:39:47;;;;;;;9.10;7.10;;;15.30;99.90;;;;;;5055578;28;20021;-54
2024/03/27 10:42:20;;;;;;;12.40;6.35;;;15.10;99.90;;;;;;5055926;28;20123;-53
2024/03/27 10:44:46;;;;;;;7.90;5.63;;;15.00;99.90;;;;;;5054406;28;20031;-57
2024/03/27 10:47:18;;;;;;;8.02;5.93;;;14.80;99.90;;;;;;5054393;28;20021;-56
2024/03/27 10:49:45;;;;;;;9.50;5.85;;;14.70;99.90;;;;;;5052745;28;20064;-50
2024/03/27 10:52:12;;;;;;;9.93;5.30;;;14.60;99.90;;;;;;5053863;28;20021;-54
2024/03/27 10:54:38;;;;;;;5.53;4.70;;;14.50;99.90;;;;;;5053897;28;20029;-53
2024/03/27 10:57:05;;;;;;;5.95;5.15;;;14.30;99.90;;;;;;5053629;28;20473;-53
2024/03/27 10:59:32;;;;;;;7.88;5.43;;;14.20;99.90;;;;;;5051985;28;20124;-50
2024/03/27 11:02:02;;;;;;;6.32;5.35;;;14.10;99.90;;;;;;5053410;28;20025;-52
2024/03/27 11:04:31;;;;;;;8.32;5.70;;;14.00;99.90;;;;;;5063912;28;20043;-54
2024/03/27 11:06:59;;;;;;;6.82;5.45;;;14.10;99.90;;;;;;5067046;28;20392;-52
2024/03/27 11:09:25;;;;;;;5.28;4.80;;;14.10;99.90;;;;;;5065359;28;20508;-54
2024/03/27 11:11:51;;;;;;;7.30;5.38;;;14.10;99.90;;;;;;5066723;28;20029;-50
2024/03/27 11:14:21;;;;;;;9.30;4.88;;;14.20;99.90;;;;;;5069434;28;20107;-51
2024/03/27 11:16:50;;;;;;;5.47;4.85;;;14.30;99.90;;;;;;5069395;28;20050;-54
2024/03/27 11:19:16;;;;;;;8.07;4.93;;;14.40;99.90;;;;;;5057157;28;20014;-57
2024/03/27 11:21:41;;;;;;;7.60;4.50;;;14.40;99.90;;;;;;5052567;28;20504;-58
2024/03/27 11:24:11;;;;;;;4.95;4.55;;;14.30;99.90;;;;;;5050192;28;20036;-56
2024/03/27 11:26:37;;;;;;;5.82;4.85;;;14.20;99.90;;;;;;5038347;28;20101;-54
2024/03/27 11:29:04;;;;;;;6.72;5.38;;;14.20;99.90;;;;;;5033392;28;20548;-55
2024/03/27 11:31:36;;;;;;;7.60;4.63;;;14.20;99.90;;;;;;5032519;28;20064;-54
2024/03/27 11:34:02;;;;;;;4.57;4.07;;;14.30;99.90;;;;;;5036090;28;20033;-55
2024/03/27 11:36:28;;;;;;;9.52;4.43;;;14.40;99.90;;;;;;5034745;28;20395;-55
2024/03/27 11:38:53;;;;;;;6.70;3.80;;;14.60;99.90;;;;;;5046524;28;20026;-54
2024/03/27 11:41:19;;;;;;;4.38;3.35;;;14.60;99.90;;;;;;5040775;28;20025;-58
2024/03/27 11:43:44;;;;;;;4.25;3.55;;;14.60;99.90;;;;;;5052190;28;20391;-54
2024/03/27 11:46:10;;;;;;;4.78;3.50;;;14.80;99.90;;;;;;5035501;28;20021;-56
2024/03/27 11:48:36;;;;;;;6.93;4.70;;;15.00;99.90;;;;;;5032213;28;20037;-55
2024/03/27 11:51:04;;;;;;;7.43;3.10;;;14.90;99.90;;;;;;5031735;28;20531;-53
2024/03/27 11:53:30;;;;;;;3.90;3.03;;;14.80;99.90;;;;;;5032080;28;20084;-58
2024/03/27 11:55:56;;;;;;;4.40;3.58;;;14.70;99.90;;;;;;5032102;28;20105;-56
2024/03/27 11:58:21;;;;;;;3.35;2.85;;;14.70;99.90;;;;;;5048764;28;20112;-54
2024/03/27 12:00:49;;;;;;;6.65;2.67;;;14.70;99.90;;;;;;5051572;28;20029;-54
2024/03/27 12:03:14;;;;;;;58.13;35.03;;;14.60;99.90;;;;;;5051903;28;20033;-58
2024/03/27 12:05:41;;;;;;;19.15;7.47;;;14.60;99.90;;;;;;5046796;28;20668;-57
2024/03/27 12:08:06;;;;;;;38.92;23.58;;;14.60;99.90;;;;;;5041748;28;20013;-57
2024/03/27 12:10:32;;;;;;;4.80;3.00;;;14.60;99.90;;;;;;5050408;28;20488;-58
2024/03/27 12:12:58;;;;;;;2.95;2.72;;;14.70;99.90;;;;;;5034710;28;20082;-55
2024/03/27 12:15:24;;;;;;;3.03;2.28;;;14.60;99.90;;;;;;5042950;28;20480;-54
2024/03/27 12:17:56;;;;;;;2.50;2.30;;;14.60;99.90;;;;;;5051514;28;20055;-53
2024/03/27 12:20:23;;;;;;;2.83;2.58;;;14.60;99.90;;;;;;5051374;28;20032;-53
2024/03/27 12:22:49;;;;;;;2.70;2.30;;;14.50;99.90;;;;;;5051453;28;20051;-55
2024/03/27 12:25:14;;;;;;;7.05;1.70;;;14.50;99.90;;;;;;5051371;28;20057;-56
2024/03/27 12:27:39;;;;;;;1.50;1.42;;;14.50;99.90;;;;;;5051265;28;20392;-57
2024/03/27 12:30:06;;;;;;;1.60;1.50;;;14.50;99.90;;;;;;5052285;28;20115;-58
2024/03/27 12:32:31;;;;;;;1.65;1.55;;;14.40;99.90;;;;;;5044896;28;20033;-55
2024/03/27 12:34:59;;;;;;;3.72;1.90;;;14.50;99.90;;;;;;5039985;28;20036;-53
2024/03/27 12:37:26;;;;;;;3.35;1.67;;;14.50;99.90;;;;;;5045701;28;20030;-54
2024/03/27 12:39:51;;;;;;;1.42;1.38;;;14.60;99.90;;;;;;5045252;28;20441;-53
2024/03/27 12:42:17;;;;;;;1.63;1.38;;;14.70;99.90;;;;;;5050747;28;20025;-57
2024/03/27 12:44:42;;;;;;;1.10;1.10;;;14.70;99.90;;;;;;5043395;28;20024;-53
2024/03/27 12:47:08;;;;;;;1.13;1.13;;;14.70;99.90;;;;;;5040351;28;20420;-56
2024/03/27 12:49:37;;;;;;;1.40;1.20;;;14.70;99.90;;;;;;5049266;28;20035;-56
2024/03/27 12:52:02;;;;;;;1.13;1.10;;;14.70;99.90;;;;;;5039782;28;20476;-57
2024/03/27 12:54:28;;;;;;;1.15;1.15;;;14.60;99.90;;;;;;5040721;28;20035;-56
2024/03/27 12:56:53;;;;;;;1.20;1.10;;;14.40;99.90;;;;;;5037576;28;20052;-55
2024/03/27 12:59:19;;;;;;;3.83;1.20;;;14.40;99.90;;;;;;5039135;28;20044;-55
2024/03/27 13:01:45;;;;;;;1.20;1.20;;;14.40;99.90;;;;;;5041778;28;20036;-56
2024/03/27 13:04:11;;;;;;;1.23;1.23;;;14.20;99.90;;;;;;5040775;28;20014;-56
2024/03/27 13:06:36;;;;;;;2.63;1.20;;;14.20;99.90;;;;;;5032033;28;20100;-55